»·PEaware :: N143VT KBFI-KMSO

N143VT :: KBFI-KMSO

FLIGHT INFORMATION

Flight Status: Arrived
Operator: Privately registered:
United States
More flights under this callsign
Pilot: Anonymous 16492 (16492)
Aircraft: ECLIPSE 500
(EA50)
More flights by this aircraft type
Origin: KBFI Boeing Field/King Co Intl
United States
Destination: KMSO Missoula Intl
United States
More flights between these airports :: More routes between these airports
Route: +NRVNA1 NRVNA NORMY V120 GEG V2 ALTON
File this flight plan on PilotEdge
Remarks:
Altitude:
(Current/Filed)
33,000ft
Speed:
(Current/Filed)
330kts
Departed: 05-Jul-18 05:47 PM
Arrived: 05-Jul-18 07:06 PM
Distance/Time
Traveled:
336nm/1:19
Distance/Time
To Go:
Arrived

Flight Plot

Page will automatically refresh every two minutes.

Flight plan parsing failed; only flown route is shown


Map Options




Map Legend


Flown Route
Filed Route
Departure Airport
Arrival Airport
Navaid (VOR, NDB)
Fix

Horizontal Profiles

Position Reports

Time Latitude Longitude Heading Altitude Ground
Speed
05-Jul-18 17:33 47.526276 -122.301905 65 23ft 0kts
05-Jul-18 17:34 47.526276 -122.301905 65 23ft 0kts
05-Jul-18 17:35 47.526276 -122.301905 65 23ft 0kts
05-Jul-18 17:36 47.526276 -122.301905 65 23ft 0kts
05-Jul-18 17:37 47.526276 -122.301905 65 23ft 0kts
05-Jul-18 17:38 47.526276 -122.301905 65 23ft 0kts
05-Jul-18 17:39 47.526276 -122.301905 65 23ft 0kts
05-Jul-18 17:40 47.526276 -122.301905 65 23ft 0kts
05-Jul-18 17:41 47.526276 -122.301905 65 23ft 0kts
05-Jul-18 17:42 47.526276 -122.301905 65 23ft 0kts
05-Jul-18 17:43 47.526276 -122.301905 65 23ft 0kts
05-Jul-18 17:44 47.527273 -122.301687 329 23ft 22kts
05-Jul-18 17:45 47.536284 -122.309328 330 23ft 26kts
05-Jul-18 17:46 47.539848 -122.312083 15 23ft 0kts
05-Jul-18 17:47 47.535534 -122.307139 150 23ft 93kts
05-Jul-18 17:48 47.502138 -122.278539 148 1596ft 162kts
05-Jul-18 17:49 47.462165 -122.243271 153 2885ft 176kts
05-Jul-18 17:50 47.433048 -122.195672 92 4630ft 180kts
05-Jul-18 17:51 47.432581 -122.121739 95 6603ft 181kts
05-Jul-18 17:52 47.432094 -122.047182 96 8434ft 183kts
05-Jul-18 17:53 47.431583 -121.971787 97 10335ft 185kts
05-Jul-18 17:54 47.431032 -121.895611 98 12378ft 187kts
05-Jul-18 17:55 47.430442 -121.818036 99 14211ft 192kts
05-Jul-18 17:56 47.429777 -121.738502 100 15907ft 198kts
05-Jul-18 17:57 47.428715 -121.656178 101 17498ft 203kts
05-Jul-18 17:58 47.427520 -121.572217 102 18968ft 208kts
05-Jul-18 17:59 47.426219 -121.485615 102 20341ft 214kts
05-Jul-18 18:00 47.424812 -121.396798 103 21613ft 220kts
05-Jul-18 18:01 47.423327 -121.307274 104 22776ft 225kts
05-Jul-18 18:02 47.421703 -121.214059 105 23856ft 231kts
05-Jul-18 18:03 47.419877 -121.117241 104 24732ft 243kts
05-Jul-18 18:04 47.417899 -121.015791 102 25560ft 254kts
05-Jul-18 18:05 47.415843 -120.911217 102 26404ft 261kts
05-Jul-18 18:06 47.413660 -120.803736 102 27290ft 265kts
05-Jul-18 18:07 47.411352 -120.694543 102 28107ft 269kts
05-Jul-18 18:08 47.408852 -120.583814 102 28898ft 272kts
05-Jul-18 18:09 47.406248 -120.471820 103 29643ft 275kts
05-Jul-18 18:10 47.403500 -120.358836 103 30315ft 278kts
05-Jul-18 18:11 47.400578 -120.246231 104 30962ft 280kts
05-Jul-18 18:12 47.397765 -120.132665 104 31540ft 283kts
05-Jul-18 18:14 47.394856 -120.018326 104 32093ft 286kts
05-Jul-18 18:15 47.391988 -119.909548 104 32615ft 287kts
05-Jul-18 18:16 47.388735 -119.791549 104 33003ft 295kts
05-Jul-18 18:17 47.385136 -119.666900 103 33011ft 314kts
05-Jul-18 18:18 47.381379 -119.536830 103 33006ft 311kts
05-Jul-18 18:19 47.380634 -119.408022 90 33013ft 333kts
05-Jul-18 18:20 47.394726 -119.275381 90 33005ft 335kts
05-Jul-18 18:21 47.409511 -119.139850 90 33008ft 335kts
05-Jul-18 18:22 47.424205 -119.004681 90 33007ft 334kts
05-Jul-18 18:23 47.438658 -118.870096 89 33008ft 334kts
05-Jul-18 18:24 47.452532 -118.740152 88 33009ft 333kts
05-Jul-18 18:25 47.466795 -118.605128 88 33010ft 333kts
05-Jul-18 18:26 47.480859 -118.470197 88 33035ft 333kts
05-Jul-18 18:27 47.494430 -118.338363 89 33079ft 333kts
05-Jul-18 18:28 47.508204 -118.202974 89 33090ft 333kts
05-Jul-18 18:29 47.521752 -118.068170 89 33091ft 333kts
05-Jul-18 18:30 47.535133 -117.933365 89 33092ft 333kts
05-Jul-18 18:31 47.548352 -117.798523 89 33092ft 333kts
05-Jul-18 18:32 47.561413 -117.663662 89 33093ft 333kts
05-Jul-18 18:33 47.560157 -117.530604 102 33086ft 323kts
05-Jul-18 18:34 47.554151 -117.398029 102 33066ft 322kts
05-Jul-18 18:35 47.547869 -117.266774 103 33054ft 322kts
05-Jul-18 18:36 47.541365 -117.135312 103 33054ft 322kts
05-Jul-18 18:37 47.534618 -117.003498 102 33066ft 324kts
05-Jul-18 18:38 47.527719 -116.870970 101 33081ft 325kts
05-Jul-18 18:39 47.520719 -116.737916 101 33083ft 326kts
05-Jul-18 18:40 47.513528 -116.605018 101 33084ft 326kts
05-Jul-18 18:41 47.506045 -116.470384 101 32330ft 334kts
05-Jul-18 18:42 47.499018 -116.345091 102 30891ft 305kts
05-Jul-18 18:43 47.491776 -116.220032 102 29387ft 303kts
05-Jul-18 18:44 47.484658 -116.098908 101 27856ft 294kts
05-Jul-18 18:45 47.477687 -115.982393 101 25874ft 282kts
05-Jul-18 18:46 47.470851 -115.870067 101 23883ft 272kts
05-Jul-18 18:47 47.464011 -115.760031 100 21892ft 280kts
05-Jul-18 18:48 47.449597 -115.632833 118 19913ft 335kts
05-Jul-18 18:49 47.410221 -115.511587 119 17919ft 327kts
05-Jul-18 18:50 47.370278 -115.393817 119 15922ft 318kts
05-Jul-18 18:51 47.331273 -115.280362 120 15009ft 313kts
05-Jul-18 18:52 47.291920 -115.166640 120 15008ft 314kts
05-Jul-18 18:53 47.252053 -115.052021 120 15007ft 317kts
05-Jul-18 18:54 47.211851 -114.937092 120 13515ft 307kts
05-Jul-18 18:55 47.172891 -114.826154 120 11509ft 304kts
05-Jul-18 18:56 47.133955 -114.715738 119 10227ft 306kts
05-Jul-18 18:57 47.101303 -114.623157 120 10004ft 211kts
05-Jul-18 18:58 47.073526 -114.545075 120 10008ft 220kts
05-Jul-18 18:59 47.045099 -114.465287 120 10009ft 221kts
05-Jul-18 19:00 47.016658 -114.384376 119 9375ft 239kts
05-Jul-18 19:01 46.987147 -114.302059 120 7726ft 207kts
05-Jul-18 19:02 46.958313 -114.222389 119 6453ft 210kts
05-Jul-18 19:03 46.932627 -114.151138 114 4527ft 190kts
05-Jul-18 19:04 46.905462 -114.095582 135 4089ft 152kts
05-Jul-18 19:05 46.896501 -114.059830 350 3635ft 104kts
05-Jul-18 19:06 46.913655 -114.087370 312 3208ft 67kts
05-Jul-18 19:07 46.918620 -114.093392 32 3208ft 7kts
05-Jul-18 19:08 46.921685 -114.090305 40 3208ft 1kts
05-Jul-18 19:09 46.921945 -114.089006 126 3208ft 11kts
05-Jul-18 19:10 46.921870 -114.088348 44 3208ft 0kts
05-Jul-18 19:11 46.921870 -114.088347 44 3208ft 0kts
05-Jul-18 19:12 46.921870 -114.088347 44 3208ft 0kts
05-Jul-18 19:13 46.921870 -114.088347 44 3208ft 0kts

Navigation Log

Ident Type
Flight plan parsing failed, navigation log unavailable